Time;durP1;ratioP1;P1;durP2;ratioP2;P2;SDS_P1;SDS_P2;PMS_P1;PMS_P2;Temp;Humidity;BMP_temperature;BMP_pressure;BME280_temperature;BME280_humidity;BME280_pressure;Samples;Min_cycle;Max_cycle;Signal;HPM_P1;HPM_P2
2022/06/25 00:00:01;;;;;;;;;;;;;;;10.16;89.45;99206.81;6121559;23;19913;-90
2022/06/25 00:02:35;;;;;;;;;;;;;;;10.08;88.96;99202.81;6180505;23;19923;-90
2022/06/25 00:05:39;;;;;;;;;;;;;;;;;;;;;
2022/06/25 00:08:12;;;;;;;;;;;;;;;10.09;88.87;99204.56;6180084;23;20617;-89
2022/06/25 00:10:46;;;;;;;;;;;;;;;10.05;88.98;99198.56;6180475;22;20259;-90
2022/06/25 00:13:26;;;;;;;;;;;;;;;9.97;89.20;99201.59;6284085;22;19916;-93
2022/06/25 00:16:01;;;;;;;;;;;;;;;9.98;89.39;99205.94;6285071;22;19913;-89
2022/06/25 00:18:34;;;;;;;;;;;;;;;10.04;89.67;99203.94;6284795;22;19920;-88
2022/06/25 00:21:02;;;;;;;;;;;;;;;10.04;89.44;99207.44;6180337;23;19965;-88
2022/06/25 00:23:28;;;;;;;;;;;;;;;10.05;89.18;99210.91;6178555;23;19912;-89
2022/06/25 00:25:53;;;;;;;;;;;;;;;10.02;89.48;99214.59;6180641;23;19939;-90
2022/06/25 00:28:19;;;;;;;;;;;;;;;10.17;89.53;99215.59;6180950;23;19981;-91
2022/06/25 00:30:44;;;;;;;;;;;;;;;10.40;88.45;99213.63;6308185;22;19915;-92
2022/06/25 00:35:58;;;;;;;;;;;;;;;10.44;88.24;99213.38;6190491;22;19924;-92
2022/06/25 00:38:26;;;;;;;;;;;;;;;10.29;88.23;99225.59;6283413;22;20384;-90
2022/06/25 03:36:08;;;;;;;;;;;;;;;9.17;88.19;99278.56;6311037;22;20379;-85
2022/06/25 03:38:33;;;;;;;;;;;;;;;9.20;88.45;99283.72;6311545;22;19918;-85
2022/06/25 03:43:47;;;;;;;;;;;;;;;9.17;88.96;99295.25;6339141;22;19956;-87
2022/06/25 03:46:12;;;;;;;;;;;;;;;9.23;89.06;99299.44;6311659;22;19917;-87
2022/06/25 03:48:40;;;;;;;;;;;;;;;9.14;89.64;99300.69;6338880;22;19985;-87
2022/06/25 03:51:05;;;;;;;;;;;;;;;9.11;89.80;99295.56;6337706;22;20199;-86
2022/06/25 03:53:31;;;;;;;;;;;;;;;9.12;89.73;99299.91;6338721;22;19922;-86
2022/06/25 03:55:56;;;;;;;;;;;;;;;9.10;89.69;99307.06;6338827;22;19914;-87
2022/06/25 03:58:21;;;;;;;;;;;;;;;9.14;89.60;99305.13;6311550;22;20284;-88
2022/06/25 04:00:46;;;;;;;;;;;;;;;9.08;89.71;99306.28;6338734;22;19918;-88
2022/06/25 04:03:12;;;;;;;;;;;;;;;9.08;89.55;99298.34;6338706;22;19918;-88
2022/06/25 04:05:37;;;;;;;;;;;;;;;9.15;89.75;99306.84;6309686;22;19997;-86
2022/06/25 04:08:02;;;;;;;;;;;;;;;9.07;89.42;99307.19;6338704;22;19915;-85
2022/06/25 04:10:28;;;;;;;;;;;;;;;9.07;89.79;99309.81;6311155;22;19915;-91
2022/06/25 04:12:53;;;;;;;;;;;;;;;9.08;89.76;99309.75;6338725;22;19942;-85
2022/06/25 04:15:18;;;;;;;;;;;;;;;9.07;89.62;99305.38;6338700;22;19936;-86
2022/06/25 04:17:43;;;;;;;;;;;;;;;9.08;89.65;99299.19;6338783;22;19918;-86
2022/06/25 04:20:10;;;;;;;;;;;;;;;9.05;89.66;99301.13;6336994;22;20245;-89
2022/06/25 04:22:36;;;;;;;;;;;;;;;9.10;90.08;99317.63;6311385;22;20292;-87
2022/06/25 04:25:01;;;;;;;;;;;;;;;9.08;90.00;99312.41;6338481;22;19937;-86
2022/06/25 04:30:10;;;;;;;;;;;;;;;9.09;90.56;99315.91;6338564;22;19921;-87
2022/06/25 04:32:36;;;;;;;;;;;;;;;9.12;90.91;99323.69;6338603;22;20309;-87
2022/06/25 04:35:01;;;;;;;;;;;;;;;9.05;90.68;99323.09;6336747;22;19945;-87
2022/06/25 04:37:26;;;;;;;;;;;;;;;9.09;90.81;99326.47;6338218;22;19921;-87
2022/06/25 04:39:51;;;;;;;;;;;;;;;9.04;90.92;99324.03;6338341;22;19910;-88
2022/06/25 04:42:17;;;;;;;;;;;;;;;9.11;91.03;99314.06;6338387;22;19992;-87
2022/06/25 04:44:42;;;;;;;;;;;;;;;9.10;90.81;99322.91;6338103;22;19947;-88
2022/06/25 04:47:09;;;;;;;;;;;;;;;9.06;91.13;99322.19;6311091;22;19914;-87
2022/06/25 04:49:34;;;;;;;;;;;;;;;9.14;91.04;99336.84;6308914;22;19911;-87
2022/06/25 04:52:00;;;;;;;;;;;;;;;9.11;90.90;99336.97;6310594;22;20126;-87
2022/06/25 04:54:25;;;;;;;;;;;;;;;9.05;91.01;99338.13;6310920;22;19918;-88
2022/06/25 04:56:50;;;;;;;;;;;;;;;9.07;91.28;99349.47;6338242;22;19914;-87
2022/06/25 04:59:18;;;;;;;;;;;;;;;9.07;91.42;99341.53;6311011;22;19918;-87
2022/06/25 05:01:43;;;;;;;;;;;;;;;9.03;91.27;99340.81;6338193;22;20280;-85
2022/06/25 05:04:09;;;;;;;;;;;;;;;8.97;90.98;99340.25;6336677;22;19942;-86
2022/06/25 05:06:35;;;;;;;;;;;;;;;9.04;90.93;99352.25;6310142;22;19917;-86
2022/06/25 05:09:00;;;;;;;;;;;;;;;9.01;90.84;99347.09;6338246;22;19920;-86
2022/06/25 05:11:25;;;;;;;;;;;;;;;9.00;91.01;99350.66;6338222;22;19950;-86
2022/06/25 07:41:14;;;;;;;;;;;;;;;9.34;91.15;99313.03;6220130;22;20000;-86
2022/06/25 07:43:44;;;;;;;;;;;;;;;9.23;91.15;99304.72;6338943;22;20340;-89
2022/06/25 07:46:17;;;;;;;;;;;;;;;9.25;90.76;99305.50;6310922;22;19938;-88
2022/06/25 07:48:50;;;;;;;;;;;;;;;9.25;90.40;99309.03;6309078;22;19951;-88
2022/06/25 07:54:06;;;;;;;;;;;;;;;9.30;90.71;99310.59;6338734;22;19956;-87
2022/06/25 07:56:32;;;;;;;;;;;;;;;9.35;91.31;99303.28;6310022;22;19914;-87
2022/06/25 07:58:59;;;;;;;;;;;;;;;9.33;91.10;99299.88;6338036;22;19911;-87
2022/06/25 08:01:25;;;;;;;;;;;;;;;9.38;91.02;99297.88;6308918;22;19921;-87
2022/06/25 08:03:50;;;;;;;;;;;;;;;9.43;90.97;99301.19;6337367;22;19911;-91
2022/06/25 08:06:15;;;;;;;;;;;;;;;9.37;90.83;99291.72;6338161;22;19916;-87
2022/06/25 08:08:41;;;;;;;;;;;;;;;9.35;90.92;99295.34;6338735;22;20241;-88
2022/06/25 08:11:09;;;;;;;;;;;;;;;9.32;91.25;99292.84;6309051;22;19915;-87
2022/06/25 08:13:35;;;;;;;;;;;;;;;9.25;91.19;99287.88;6337741;22;19921;-87
2022/06/25 08:16:05;;;;;;;;;;;;;;;9.32;90.88;99288.44;6338561;22;19917;-86
2022/06/25 08:18:33;;;;;;;;;;;;;;;9.35;90.56;99290.06;6338651;22;19918;-87
2022/06/25 08:21:01;;;;;;;;;;;;;;;9.23;90.74;99279.13;6338163;22;19910;-86
2022/06/25 08:23:29;;;;;;;;;;;;;;;9.38;91.18;99295.22;6338293;22;19917;-85
2022/06/25 08:25:56;;;;;;;;;;;;;;;9.30;91.02;99294.72;6309160;22;19942;-86
2022/06/25 08:28:23;;;;;;;;;;;;;;;9.43;91.44;99285.31;6338794;22;19964;-86
2022/06/25 08:30:49;;;;;;;;;;;;;;;9.33;91.23;99291.94;6338399;22;19960;-86
2022/06/25 08:33:18;;;;;;;;;;;;;;;9.34;91.02;99285.72;6338536;22;19915;-86
2022/06/25 08:35:50;;;;;;;;;;;;;;;9.35;91.04;99283.03;6337759;22;19956;-89
2022/06/25 08:38:18;;;;;;;;;;;;;;;9.35;90.83;99276.84;6337417;22;19915;-88
2022/06/25 08:40:53;;;;;;;;;;;;;;;9.39;90.71;99281.94;6332305;22;19914;-86
2022/06/25 08:43:19;;;;;;;;;;;;;;;9.31;90.99;99292.00;6338155;22;20325;-87
2022/06/25 08:45:44;;;;;;;;;;;;;;;9.35;91.01;99287.44;6338536;22;19922;-87
2022/06/25 08:48:13;;;;;;;;;;;;;;;9.33;91.23;99291.94;6338462;22;19910;-86
2022/06/25 08:50:39;;;;;;;;;;;;;;;9.33;91.13;99289.28;6338327;22;19918;-87
2022/06/25 08:53:05;;;;;;;;;;;;;;;9.37;90.85;99285.59;6311079;22;20297;-85
2022/06/25 08:55:31;;;;;;;;;;;;;;;9.33;91.08;99278.72;6336957;22;19918;-86
2022/06/25 08:58:09;;;;;;;;;;;;;;;9.30;91.24;99289.44;6338153;22;19997;-87
2022/06/25 09:00:48;;;;;;;;;;;;;;;9.34;91.03;99283.09;6338606;22;19911;-87
2022/06/25 09:03:43;;;;;;;;;;;;;;;;;;;;;
2022/06/25 09:06:26;;;;;;;;;;;;;;;10.28;98.52;99282.13;6338153;22;20032;-87
2022/06/25 09:09:11;;;;;;;;;;;;;;;9.91;97.70;99286.56;6310363;22;20334;-86
2022/06/25 09:11:49;;;;;;;;;;;;;;;9.60;94.63;99281.88;6287386;22;19921;-86
2022/06/25 09:14:27;;;;;;;;;;;;;;;9.55;92.85;99282.06;6338225;22;19910;-86
2022/06/25 09:17:06;;;;;;;;;;;;;;;;;;;;;
2022/06/25 09:19:40;;;;;;;;;;;;;;;10.28;97.89;99268.88;6338166;22;20001;-86
2022/06/25 09:22:08;;;;;;;;;;;;;;;10.38;98.95;99273.75;6338149;22;20368;-86
2022/06/25 09:24:42;;;;;;;;;;;;;;;9.69;96.15;99278.78;6338111;22;19917;-86
2022/06/25 09:27:10;;;;;;;;;;;;;;;9.62;94.11;99270.28;6336350;22;19910;-86
2022/06/25 09:29:38;;;;;;;;;;;;;;;9.55;93.02;99271.50;6338005;22;19914;-86
2022/06/25 09:32:13;;;;;;;;;;;;;;;10.15;96.56;99270.44;6337930;22;19967;-86
2022/06/25 09:34:43;;;;;;;;;;;;;;;10.49;99.53;99255.53;6338042;22;19911;-87
2022/06/25 09:37:36;;;;;;;;;;;;;;;10.08;98.46;99261.91;6338011;22;19914;-87
2022/06/25 09:40:02;;;;;;;;;;;;;;;9.80;95.35;99267.72;6331991;22;19989;-86
2022/06/25 09:42:32;;;;;;;;;;;;;;;9.71;93.37;99260.22;6310105;22;19934;-86
2022/06/25 09:44:58;;;;;;;;;;;;;;;10.08;95.52;99261.06;6338109;22;20006;-86
2022/06/25 09:47:31;;;;;;;;;;;;;;;10.50;98.65;99254.59;6310452;22;19915;-87
2022/06/25 09:50:08;;;;;;;;;;;;;;;10.49;99.76;99260.81;6310518;22;20234;-86
2022/06/25 09:52:34;;;;;;;;;;;;;;;10.11;96.81;99253.81;6337822;22;19907;-88
2022/06/25 09:55:02;;;;;;;;;;;;;;;10.53;99.02;99260.59;6336739;22;19933;-87
2022/06/25 09:57:30;;;;;;;;;;;;;;;10.77;100.00;99249.66;6337854;22;19914;-87
2022/06/25 10:00:01;;;;;;;;;;;;;;;10.27;98.55;99253.91;6310357;22;20329;-88
2022/06/25 10:02:27;;;;;;;;;;;;;;;10.57;99.03;99253.34;6309318;22;19940;-86
2022/06/25 10:04:57;;;;;;;;;;;;;;;10.91;100.00;99251.56;6310195;22;19915;-87
2022/06/25 10:07:59;;;;;;;;;;;;;;;10.54;99.84;99261.44;6310308;22;19915;-86
2022/06/25 10:10:17;;;;;;;;;;;;;;;10.35;97.96;99259.75;6335896;22;19914;-88
2022/06/25 10:12:46;;;;;;;;;;;;;;;10.82;100.00;99252.09;6337766;22;20334;-87
2022/06/25 10:15:14;;;;;;;;;;;;;;;10.85;100.00;99247.47;6310157;22;20314;-86
2022/06/25 10:18:21;;;;;;;;;;;;;;;10.20;97.53;99244.59;6310312;22;20003;-89
2022/06/25 10:20:45;;;;;;;;;;;;;;;10.51;97.84;99243.06;6337389;22;19918;-87
2022/06/25 10:23:14;;;;;;;;;;;;;;;10.88;99.73;99235.84;6338528;22;19934;-87
2022/06/25 10:25:43;;;;;;;;;;;;;;;10.83;100.00;99237.88;6336192;22;20364;-90
2022/06/25 10:28:12;;;;;;;;;;;;;;;10.41;97.19;99236.53;6309812;22;19989;-86
2022/06/25 10:30:51;;;;;;;;;;;;;;;10.85;99.36;99233.34;6310262;22;19957;-87
2022/06/25 10:33:31;;;;;;;;;;;;;;;11.13;100.00;99239.84;6310143;22;19911;-87
2022/06/25 10:35:58;;;;;;;;;;;;;;;10.48;98.30;99248.50;6312503;22;20325;-88
2022/06/25 10:38:29;;;;;;;;;;;;;;;10.80;99.27;99238.03;6310204;22;19914;-86
2022/06/25 10:41:03;;;;;;;;;;;;;;;11.11;100.00;99226.66;6335754;22;19914;-86
2022/06/25 10:44:00;;;;;;;;;;;;;;;;;;;;;
2022/06/25 10:46:36;;;;;;;;;;;;;;;10.59;98.08;99229.41;6339330;22;20001;-88
2022/06/25 10:49:14;;;;;;;;;;;;;;;10.97;100.00;99222.09;6312400;22;20350;-86
2022/06/25 10:54:45;;;;;;;;;;;;;;;10.66;98.38;99222.88;6189215;22;19927;-86
2022/06/25 10:57:10;;;;;;;;;;;;;;;11.05;100.00;99214.59;6284653;22;19913;-86
2022/06/25 10:59:37;;;;;;;;;;;;;;;11.06;100.00;99211.00;6181872;22;19920;-86
2022/06/25 11:02:36;;;;;;;;;;;;;;;10.46;97.97;99213.31;6181069;22;19987;-87
2022/06/25 11:04:56;;;;;;;;;;;;;;;11.00;100.00;99216.63;6184529;22;19912;-87
2022/06/25 11:07:39;;;;;;;;;;;;;;;11.16;100.00;99213.16;6181058;22;19912;-88
2022/06/25 11:10:12;;;;;;;;;;;;;;;10.47;98.01;99209.72;6179508;23;20270;-89
2022/06/25 11:12:42;;;;;;;;;;;;;;;10.96;99.42;99201.84;6180907;23;19987;-86
2022/06/25 11:15:12;;;;;;;;;;;;;;;11.17;100.00;99202.47;6181200;22;19931;-86
2022/06/25 11:17:40;;;;;;;;;;;;;;;10.47;97.73;99205.28;6181035;22;20252;-86
2022/06/25 11:20:09;;;;;;;;;;;;;;;10.96;99.45;99201.84;6260487;22;19947;-87
2022/06/25 11:22:55;;;;;;;;;;;;;;;11.28;100.00;99201.91;6285583;22;19920;-88
2022/06/25 11:30:57;;;;;;;;;;;;;;;11.30;100.00;99204.47;6181400;23;19919;-86
2022/06/25 11:33:34;;;;;;;;;;;;;;;10.66;98.65;99207.84;6285155;22;19913;-87
2022/06/25 11:36:09;;;;;;;;;;;;;;;11.08;100.00;99205.63;6285281;22;19916;-86
2022/06/25 11:38:37;;;;;;;;;;;;;;;11.30;100.00;99209.78;6285359;22;19999;-86
2022/06/25 11:41:04;;;;;;;;;;;;;;;10.61;98.84;99212.53;6284007;22;19917;-88
2022/06/25 11:43:40;;;;;;;;;;;;;;;;;;;;;
2022/06/25 11:46:16;;;;;;;;;;;;;;;;;;;;;
2022/06/25 11:48:41;;;;;;;;;;;;;;;10.54;98.31;99214.59;6180832;23;19991;-87
2022/06/25 11:51:35;;;;;;;;;;;;;;;11.00;99.68;99215.78;6181156;23;19947;-86
2022/06/25 11:54:13;;;;;;;;;;;;;;;11.30;100.00;99217.72;6275883;22;19917;-87
2022/06/25 11:56:59;;;;;;;;;;;;;;;10.56;98.09;99217.19;6283639;22;19944;-89
2022/06/25 11:59:28;;;;;;;;;;;;;;;11.02;99.50;99201.50;6179698;23;19919;-86
2022/06/25 12:01:54;;;;;;;;;;;;;;;11.26;100.00;99212.59;6180687;23;19916;-86
2022/06/25 12:04:24;;;;;;;;;;;;;;;10.74;98.66;99199.47;6180842;23;19993;-88
2022/06/25 12:06:59;;;;;;;;;;;;;;;11.05;99.56;99203.97;6180706;23;19974;-86
2022/06/25 12:09:44;;;;;;;;;;;;;;;;;;;;;
2022/06/25 12:12:19;;;;;;;;;;;;;;;10.78;98.48;99190.41;6180181;23;19995;-87
2022/06/25 12:15:24;;;;;;;;;;;;;;;11.20;100.00;99196.13;6285181;22;20286;-87
2022/06/25 12:18:01;;;;;;;;;;;;;;;11.38;100.00;99189.81;6180898;22;19908;-88
2022/06/25 12:20:39;;;;;;;;;;;;;;;;;;;;;
2022/06/25 12:23:15;;;;;;;;;;;;;;;11.26;100.00;99182.53;6180829;23;19991;-87
2022/06/25 12:25:40;;;;;;;;;;;;;;;11.22;100.00;99170.41;6283737;22;19919;-86
2022/06/25 12:28:08;;;;;;;;;;;;;;;10.95;99.43;99167.47;6284713;22;20264;-87
2022/06/25 12:30:33;;;;;;;;;;;;;;;11.36;100.00;99174.91;6180726;23;20336;-88
2022/06/25 12:33:17;;;;;;;;;;;;;;;11.23;100.00;99165.03;6284580;22;19916;-87
2022/06/25 12:35:55;;;;;;;;;;;;;;;;;;;;;
2022/06/25 12:38:23;;;;;;;;;;;;;;;11.42;100.00;99162.19;6180970;23;19995;-87
2022/06/25 12:40:51;;;;;;;;;;;;;;;11.17;99.76;99157.41;6178976;23;19969;-90
2022/06/25 12:43:21;;;;;;;;;;;;;;;11.21;99.00;99158.06;6180936;23;20003;-86
2022/06/25 12:45:57;;;;;;;;;;;;;;;;;;;;;
2022/06/25 12:48:37;;;;;;;;;;;;;;;11.29;99.97;99147.91;6180571;23;20399;-86
2022/06/25 12:51:14;;;;;;;;;;;;;;;11.29;99.82;99155.84;6180656;23;20312;-87
2022/06/25 12:53:47;;;;;;;;;;;;;;;11.59;100.00;99152.41;6180466;23;20351;-86
2022/06/25 12:56:13;;;;;;;;;;;;;;;11.18;99.60;99158.25;6283158;22;19995;-86
2022/06/25 12:58:49;;;;;;;;;;;;;;;11.33;99.89;99152.09;6284818;22;19944;-88
2022/06/25 13:01:20;;;;;;;;;;;;;;;11.65;100.00;99149.41;6180873;23;19923;-87
2022/06/25 13:03:46;;;;;;;;;;;;;;;11.14;98.99;99146.13;6180693;22;19923;-87
2022/06/25 13:06:11;;;;;;;;;;;;;;;11.39;99.68;99140.28;6180376;23;20274;-88
2022/06/25 13:08:37;;;;;;;;;;;;;;;11.72;100.00;99137.50;6180346;23;19913;-87
2022/06/25 13:11:02;;;;;;;;;;;;;;;11.31;99.31;99140.69;6178938;23;19921;-86
2022/06/25 13:13:28;;;;;;;;;;;;;;;11.38;99.64;99141.22;6180704;22;19922;-86
2022/06/25 13:16:00;;;;;;;;;;;;;;;11.65;100.00;99136.16;6180565;22;19927;-87
2022/06/25 13:18:30;;;;;;;;;;;;;;;11.27;99.41;99131.22;6180511;23;19916;-86
2022/06/25 13:21:02;;;;;;;;;;;;;;;11.40;99.81;99139.34;6284477;22;19923;-87
2022/06/25 13:23:31;;;;;;;;;;;;;;;11.74;100.00;99132.09;6284258;22;20098;-87
2022/06/25 13:25:58;;;;;;;;;;;;;;;11.37;99.24;99137.69;6178781;23;19966;-87
2022/06/25 13:28:31;;;;;;;;;;;;;;;11.50;99.74;99132.56;6284252;22;19920;-86
2022/06/25 13:31:09;;;;;;;;;;;;;;;;;;;;;
2022/06/25 13:33:37;;;;;;;;;;;;;;;11.27;98.90;99125.91;6180355;23;19995;-86
2022/06/25 13:36:05;;;;;;;;;;;;;;;11.55;99.83;99127.00;6180728;23;19912;-87
2022/06/25 13:38:40;;;;;;;;;;;;;;;;;;;;;
2022/06/25 13:41:06;;;;;;;;;;;;;;;11.34;98.51;99123.78;6179017;23;19998;-87
2022/06/25 13:43:36;;;;;;;;;;;;;;;11.55;99.36;99119.03;6180379;23;19948;-87
2022/06/25 13:46:04;;;;;;;;;;;;;;;11.79;100.00;99117.63;6284108;22;19920;-86
2022/06/25 13:48:29;;;;;;;;;;;;;;;11.28;98.41;99122.34;6284297;22;20308;-86
2022/06/25 13:51:05;;;;;;;;;;;;;;;;;;;;;
2022/06/25 13:53:40;;;;;;;;;;;;;;;;;;;;;
2022/06/25 13:56:06;;;;;;;;;;;;;;;11.26;97.95;99114.47;6178820;23;19995;-87
2022/06/25 13:58:41;;;;;;;;;;;;;;;;;;;;;
2022/06/25 14:01:27;;;;;;;;;;;;;;;11.88;100.00;99100.28;6180207;23;19999;-88
2022/06/25 14:04:05;;;;;;;;;;;;;;;11.35;97.92;99105.13;6180317;22;20367;-87
2022/06/25 14:06:36;;;;;;;;;;;;;;;11.77;99.60;99110.69;6180451;23;19916;-87
2022/06/25 14:09:02;;;;;;;;;;;;;;;11.89;100.00;99109.13;6283575;22;19930;-87
2022/06/25 14:11:28;;;;;;;;;;;;;;;11.38;98.03;99112.06;6281675;22;19912;-86
2022/06/25 14:13:53;;;;;;;;;;;;;;;11.68;99.62;99106.78;6180030;23;20351;-87
2022/06/25 14:16:30;;;;;;;;;;;;;;;11.92;100.00;99096.56;6180542;23;19913;-86
2022/06/25 14:18:57;;;;;;;;;;;;;;;11.32;98.03;99093.84;6284735;22;19913;-86
2022/06/25 14:21:26;;;;;;;;;;;;;;;11.74;99.58;99087.84;6286158;22;19913;-87
2022/06/25 14:23:54;;;;;;;;;;;;;;;11.94;100.00;99092.00;6286182;22;20274;-86
2022/06/25 14:26:19;;;;;;;;;;;;;;;11.50;98.14;99090.09;6284521;22;19912;-88
2022/06/25 14:28:45;;;;;;;;;;;;;;;11.89;99.50;99085.25;6181376;22;19912;-85
2022/06/25 14:31:15;;;;;;;;;;;;;;;12.03;100.00;99079.13;6285803;22;19916;-86
2022/06/25 14:33:40;;;;;;;;;;;;;;;11.45;98.33;99084.22;6181143;23;19912;-85
2022/06/25 14:44:23;;;;;;;;;;;;;;;11.89;99.83;99079.94;6181120;23;19923;-86
2022/06/25 14:46:53;;;;;;;;;;;;;;;11.94;100.00;99068.09;6285313;22;19912;-86
2022/06/25 14:49:19;;;;;;;;;;;;;;;11.61;98.69;99081.53;6285586;22;19912;-86
2022/06/25 14:51:47;;;;;;;;;;;;;;;11.97;99.89;99073.22;6285316;22;20377;-86
2022/06/25 14:54:12;;;;;;;;;;;;;;;11.95;99.98;99071.59;6181125;22;19917;-86
2022/06/25 14:56:41;;;;;;;;;;;;;;;11.66;98.26;99068.00;6283796;22;19938;-87
2022/06/25 14:59:08;;;;;;;;;;;;;;;11.91;99.56;99062.09;6181562;22;19923;-87
2022/06/25 15:01:34;;;;;;;;;;;;;;;11.87;99.31;99065.88;6181045;23;19923;-86
2022/06/25 15:04:04;;;;;;;;;;;;;;;11.67;98.36;99065.25;6259479;22;20236;-87
2022/06/25 15:06:31;;;;;;;;;;;;;;;11.95;99.83;99048.59;6180942;23;19916;-87
2022/06/25 15:09:09;;;;;;;;;;;;;;;;;;;;;
2022/06/25 15:11:37;;;;;;;;;;;;;;;11.64;98.39;99057.47;6179556;23;20003;-86
2022/06/25 15:14:06;;;;;;;;;;;;;;;11.92;99.99;99055.88;6285702;22;19947;-86
2022/06/25 15:16:34;;;;;;;;;;;;;;;11.80;98.82;99057.44;6181079;23;19965;-86
2022/06/25 15:19:08;;;;;;;;;;;;;;;11.73;98.41;99048.13;6180993;23;19912;-87
2022/06/25 15:21:46;;;;;;;;;;;;;;;;;;;;;
2022/06/25 15:24:27;;;;;;;;;;;;;;;11.61;97.98;99049.69;6181398;22;20269;-90
2022/06/25 15:26:59;;;;;;;;;;;;;;;11.79;98.55;99040.66;6178616;23;19920;-87
2022/06/25 15:29:29;;;;;;;;;;;;;;;12.08;99.88;99040.72;6285139;22;19912;-86
2022/06/25 15:32:00;;;;;;;;;;;;;;;11.47;97.45;99041.69;6181147;22;19913;-87
2022/06/25 15:34:27;;;;;;;;;;;;;;;11.84;98.88;99042.16;6285928;22;19913;-87
2022/06/25 15:36:55;;;;;;;;;;;;;;;11.98;99.75;99042.22;6285092;22;19919;-86
2022/06/25 15:39:30;;;;;;;;;;;;;;;;;;;;;
2022/06/25 15:42:04;;;;;;;;;;;;;;;11.87;98.99;99034.91;6179735;23;19927;-88
2022/06/25 15:47:51;;;;;;;;;;;;;;;11.59;97.88;99031.22;6213409;23;19915;-88
2022/06/25 15:50:25;;;;;;;;;;;;;;;;;;;;;
2022/06/25 15:52:51;;;;;;;;;;;;;;;11.96;99.19;99041.47;6186445;22;19999;-88
2022/06/25 15:55:32;;;;;;;;;;;;;;;;;;;;;
2022/06/25 15:58:02;;;;;;;;;;;;;;;12.02;99.87;99032.28;6180772;23;19994;-89
2022/06/25 16:00:46;;;;;;;;;;;;;;;11.89;98.74;99026.84;6180839;23;19920;-88
2022/06/25 16:03:19;;;;;;;;;;;;;;;11.84;98.59;99024.47;6284849;22;20319;-88
2022/06/25 16:05:44;;;;;;;;;;;;;;;12.11;100.00;99021.97;6180624;23;19918;-90
2022/06/25 16:08:10;;;;;;;;;;;;;;;11.65;98.04;99014.09;6180346;23;19999;-90
2022/06/25 16:10:37;;;;;;;;;;;;;;;11.82;98.92;99008.63;6179566;22;20321;-86
2022/06/25 16:13:06;;;;;;;;;;;;;;;12.10;100.00;99009.63;6180749;23;19957;-85
2022/06/25 16:15:50;;;;;;;;;;;;;;;;;;;;;
2022/06/25 16:18:15;;;;;;;;;;;;;;;11.91;99.73;99004.53;6180096;23;20300;-88
2022/06/25 16:21:11;;;;;;;;;;;;;;;12.15;100.00;99004.88;6284577;22;19951;-90
2022/06/25 16:23:49;;;;;;;;;;;;;;;;;;;;;
2022/06/25 16:26:14;;;;;;;;;;;;;;;11.99;100.00;99004.13;6179005;23;19983;-89
2022/06/25 16:28:40;;;;;;;;;;;;;;;12.24;100.00;99007.91;6181108;22;19974;-88
2022/06/25 16:31:24;;;;;;;;;;;;;;;;;;;;;
2022/06/25 16:34:00;;;;;;;;;;;;;;;11.99;100.00;99002.31;6180600;23;20362;-90
2022/06/25 16:36:35;;;;;;;;;;;;;;;;;;;;;
2022/06/25 16:39:01;;;;;;;;;;;;;;;11.76;98.82;99006.34;6197841;22;19991;-88
2022/06/25 16:41:29;;;;;;;;;;;;;;;12.08;100.00;99006.22;6178712;23;20348;-86
2022/06/25 16:44:04;;;;;;;;;;;;;;;11.97;99.98;98992.75;6179620;23;20270;-89
2022/06/25 16:46:53;;;;;;;;;;;;;;;11.91;99.06;98998.38;6283885;22;19916;-86
2022/06/25 16:49:41;;;;;;;;;;;;;;;12.20;100.00;98998.44;6247857;22;19912;-86
2022/06/25 16:52:13;;;;;;;;;;;;;;;11.74;98.78;99002.94;6284253;22;19920;-87
2022/06/25 16:55:09;;;;;;;;;;;;;;;12.06;100.00;98991.31;6180965;22;20328;-88
2022/06/25 17:00:51;;;;;;;;;;;;;;;11.84;94.67;98987.28;6181221;22;19920;-87
2022/06/25 17:03:44;;;;;;;;;;;;;;;11.73;95.63;98973.81;6180503;23;19920;-87
2022/06/25 17:06:28;;;;;;;;;;;;;;;11.39;94.89;98982.00;6284090;22;19919;-87
2022/06/25 17:09:01;;;;;;;;;;;;;;;11.31;93.93;98994.84;6180605;22;19923;-88
2022/06/25 17:12:33;;;;;;;;;;;;;;;11.44;94.79;98987.88;6283427;22;20009;-87
2022/06/25 17:14:31;;;;;;;;;;;;;;;11.05;93.39;98997.19;6181802;22;20306;-90
2022/06/25 17:17:26;;;;;;;;;;;;;;;11.08;93.57;98994.38;6180030;22;19973;-86
2022/06/25 17:20:24;;;;;;;;;;;;;;;;;;;;;
2022/06/25 17:25:28;;;;;;;;;;;;;;;11.06;94.70;99003.38;6120186;23;19932;-85
2022/06/25 17:27:53;;;;;;;;;;;;;;;11.21;96.22;98993.69;6095856;23;19947;-85
2022/06/25 17:30:24;;;;;;;;;;;;;;;10.80;94.07;99000.41;6095523;23;19967;-90
2022/06/25 17:33:27;;;;;;;;;;;;;;;10.85;95.08;98997.47;6095920;23;19913;-87
2022/06/25 17:36:12;;;;;;;;;;;;;;;;;;;;;
2022/06/25 17:39:00;;;;;;;;;;;;;;;10.60;94.44;98996.22;6122049;23;20004;-91
2022/06/25 17:41:25;;;;;;;;;;;;;;;10.91;96.21;98986.53;6118490;23;20003;-88
2022/06/25 17:44:17;;;;;;;;;;;;;;;;;;;;;
2022/06/25 17:46:58;;;;;;;;;;;;;;;;;;;;;
2022/06/25 17:49:49;;;;;;;;;;;;;;;10.98;97.77;98987.91;6121069;23;19996;-89
2022/06/25 17:52:20;;;;;;;;;;;;;;;11.27;99.01;98982.72;6127829;23;19936;-87
2022/06/25 17:54:45;;;;;;;;;;;;;;;10.71;96.32;98985.88;6121480;23;19920;-87
2022/06/25 17:57:11;;;;;;;;;;;;;;;11.11;98.44;98982.75;6120274;23;19921;-88
2022/06/25 18:03:29;;;;;;;;;;;;;;;10.85;97.24;98994.81;6035690;23;19914;-91
2022/06/25 18:06:20;;;;;;;;;;;;;;;;;;;;;
2022/06/25 18:08:49;;;;;;;;;;;;;;;11.14;98.87;98990.53;6121037;23;20027;-90
2022/06/25 18:11:15;;;;;;;;;;;;;;;11.03;98.73;99004.41;6093732;23;19913;-88
2022/06/25 18:13:53;;;;;;;;;;;;;;;11.45;99.93;99002.88;6121424;23;19924;-88
2022/06/25 18:16:21;;;;;;;;;;;;;;;11.28;99.31;99005.66;6094896;23;19951;-87
2022/06/25 18:18:56;;;;;;;;;;;;;;;;;;;;;
2022/06/25 18:21:22;;;;;;;;;;;;;;;11.41;100.00;99011.94;6121025;23;19999;-88
2022/06/25 18:23:48;;;;;;;;;;;;;;;11.37;99.78;99021.00;6120872;23;19953;-89
2022/06/25 18:26:24;;;;;;;;;;;;;;;11.01;98.95;99026.63;6093578;23;20265;-90
2022/06/25 18:29:07;;;;;;;;;;;;;;;;;;;;;
2022/06/25 18:32:01;;;;;;;;;;;;;;;11.28;99.60;99032.16;6121176;23;20000;-90
2022/06/25 18:34:44;;;;;;;;;;;;;;;;;;;;;
2022/06/25 18:37:12;;;;;;;;;;;;;;;11.44;100.00;99026.81;6120891;23;19999;-86
2022/06/25 18:39:47;;;;;;;;;;;;;;;11.01;98.86;99027.50;6120870;23;20317;-86
2022/06/25 18:42:28;;;;;;;;;;;;;;;11.16;99.51;99032.88;6093734;23;20016;-88
2022/06/25 18:44:53;;;;;;;;;;;;;;;11.49;100.00;99026.53;6120950;23;19917;-86
2022/06/25 18:47:18;;;;;;;;;;;;;;;10.97;98.77;99025.94;6094741;23;19995;-86
2022/06/25 18:49:44;;;;;;;;;;;;;;;11.09;99.20;99033.22;6120703;23;19913;-86
2022/06/25 18:52:14;;;;;;;;;;;;;;;11.37;100.00;99023.66;6120938;23;19952;-87
2022/06/25 18:54:42;;;;;;;;;;;;;;;11.10;99.34;99034.06;6120739;23;19921;-87
2022/06/25 18:57:39;;;;;;;;;;;;;;;10.97;99.19;99031.25;6119676;23;19917;-87
2022/06/25 19:00:06;;;;;;;;;;;;;;;11.40;100.00;99025.28;6119396;23;20257;-86
2022/06/25 19:02:36;;;;;;;;;;;;;;;11.04;99.44;99031.75;6120594;23;19921;-87
2022/06/25 19:05:04;;;;;;;;;;;;;;;11.07;99.50;99024.50;6121279;23;19979;-86
2022/06/25 19:11:03;;;;;;;;;;;;;;;;;;;;;
2022/06/25 19:13:29;;;;;;;;;;;;;;;11.18;99.98;99045.06;6183410;23;20030;-89
2022/06/25 19:15:54;;;;;;;;;;;;;;;11.48;100.00;99044.25;6183259;23;19936;-87
2022/06/25 19:18:29;;;;;;;;;;;;;;;10.84;98.60;99046.97;6183259;23;20369;-88
2022/06/25 19:20:57;;;;;;;;;;;;;;;11.16;99.99;99056.72;6154043;23;19920;-86
2022/06/25 19:23:23;;;;;;;;;;;;;;;11.48;100.00;99054.03;6121531;23;20291;-86
2022/06/25 19:28:51;;;;;;;;;;;;;;;11.22;100.00;99048.44;6272432;22;19925;-85
2022/06/25 19:31:17;;;;;;;;;;;;;;;11.47;100.00;99054.97;6280855;22;20017;-86
2022/06/25 19:33:42;;;;;;;;;;;;;;;10.84;99.16;99049.63;6280554;22;19918;-87
2022/06/25 19:36:08;;;;;;;;;;;;;;;11.16;100.00;99043.47;6308268;22;19911;-88
2022/06/25 19:38:33;;;;;;;;;;;;;;;11.44;100.00;99040.94;6280301;22;20326;-85
2022/06/25 19:41:08;;;;;;;;;;;;;;;11.01;100.00;99043.41;6306399;22;19985;-87
2022/06/25 19:43:34;;;;;;;;;;;;;;;11.12;100.00;99039.28;6287410;22;19923;-86
2022/06/25 19:46:01;;;;;;;;;;;;;;;11.45;100.00;99032.03;6280440;22;19915;-86
2022/06/25 19:48:27;;;;;;;;;;;;;;;11.15;100.00;99031.16;6280109;22;19911;-86
2022/06/25 19:50:52;;;;;;;;;;;;;;;10.94;99.80;99028.75;6280304;22;19915;-86
2022/06/25 19:53:20;;;;;;;;;;;;;;;11.39;100.00;99028.88;6307672;22;19964;-95
2022/06/25 19:55:45;;;;;;;;;;;;;;;11.40;100.00;99031.44;6306079;22;19911;-85
2022/06/25 19:58:11;;;;;;;;;;;;;;;10.90;98.92;99029.91;6307745;22;19962;-85